createdAt,value
2022-08-08T00:01:21.254Z,56.48
2022-08-08T00:04:35.798Z,56.73
2022-08-08T00:07:12.772Z,56.92
2022-08-08T00:10:16.807Z,56.21
2022-08-08T00:12:56.894Z,55.81
2022-08-08T00:15:55.846Z,55.02
2022-08-08T00:18:38.105Z,55.40
2022-08-08T00:21:08.072Z,55.26
2022-08-08T00:23:51.103Z,55.12
2022-08-08T00:26:30.157Z,56.41
2022-08-08T00:29:44.782Z,56.75
2022-08-08T00:32:38.430Z,55.93
2022-08-08T00:35:25.444Z,57.83
2022-08-08T00:38:02.759Z,58.01
2022-08-08T00:41:11.592Z,57.98
2022-08-08T00:43:46.057Z,59.17
2022-08-08T00:46:57.508Z,57.65
2022-08-08T00:49:32.122Z,59.65
2022-08-08T00:52:20.547Z,58.79
2022-08-08T00:55:10.507Z,59.85
2022-08-08T00:58:02.474Z,59.51
2022-08-08T01:00:38.032Z,59.34
2022-08-08T01:04:01.662Z,58.66
2022-08-08T01:06:29.823Z,59.97
2022-08-08T01:09:41.346Z,60.06
2022-08-08T01:12:37.674Z,59.17
2022-08-08T01:15:17.199Z,59.51
2022-08-08T01:18:53.152Z,59.82
2022-08-08T01:22:10.119Z,59.19
2022-08-08T01:24:58.952Z,59.03
2022-08-08T01:28:00.239Z,59.27
2022-08-08T01:30:53.448Z,60.25
2022-08-08T01:33:43.214Z,61.15
2022-08-08T01:36:34.886Z,61.64
2022-08-08T01:41:50.575Z,61.13
2022-08-08T01:44:50.677Z,61.06
2022-08-08T01:48:14.742Z,62.67
2022-08-08T01:51:03.021Z,61.70
2022-08-08T01:55:16.386Z,60.84
2022-08-08T01:58:11.369Z,62.13
2022-08-08T02:00:43.456Z,61.87
2022-08-08T02:03:54.571Z,60.38
2022-08-08T02:06:51.952Z,60.32
2022-08-08T02:10:03.838Z,61.86
2022-08-08T02:12:33.417Z,60.88
2022-08-08T02:15:11.083Z,59.78
2022-08-08T02:17:58.993Z,59.49
2022-08-08T02:21:01.089Z,59.43
2022-08-08T02:23:19.474Z,60.41
2022-08-08T02:26:21.393Z,59.79
2022-08-08T02:29:00.193Z,61.13
2022-08-08T02:32:10.896Z,61.02
2022-08-08T02:35:10.339Z,61.12
2022-08-08T02:38:25.674Z,59.26
2022-08-08T02:41:59.569Z,60.23
2022-08-08T02:44:38.150Z,60.09
2022-08-08T02:47:58.822Z,59.88
2022-08-08T02:51:03.614Z,62.55
2022-08-08T02:53:56.868Z,61.09
2022-08-08T02:56:45.382Z,61.49
2022-08-08T03:00:01.584Z,60.91
2022-08-08T03:02:58.424Z,61.60
2022-08-08T03:08:54.341Z,60.94
2022-08-08T03:12:01.095Z,61.88
2022-08-08T03:15:58.850Z,62.86
2022-08-08T03:17:52.148Z,63.79
2022-08-08T03:20:51.833Z,62.10
2022-08-08T03:23:23.698Z,62.67
2022-08-08T03:25:51.934Z,62.21
2022-08-08T03:28:33.013Z,64.13
2022-08-08T03:31:13.602Z,62.88
2022-08-08T03:33:56.355Z,63.50
2022-08-08T03:36:30.530Z,63.73
2022-08-08T03:39:14.136Z,62.18
2022-08-08T03:42:27.057Z,64.07
2022-08-08T03:44:35.011Z,65.34
2022-08-08T03:47:07.062Z,63.53
2022-08-08T03:50:00.946Z,64.32
2022-08-08T03:52:34.058Z,63.69
2022-08-08T03:55:20.260Z,63.36
2022-08-08T03:58:30.813Z,63.27
2022-08-08T04:01:02.213Z,62.44
2022-08-08T04:03:58.910Z,63.03
2022-08-08T04:06:23.411Z,62.76
2022-08-08T04:08:50.134Z,62.45
2022-08-08T04:11:20.725Z,61.69
2022-08-08T04:14:04.161Z,62.20
2022-08-08T04:16:40.164Z,60.97
2022-08-08T04:19:24.183Z,63.39
2022-08-08T04:21:54.258Z,62.77
2022-08-08T04:24:29.678Z,64.70
2022-08-08T04:26:59.525Z,65.54
2022-08-08T04:29:27.461Z,65.92
2022-08-08T04:32:00.687Z,63.26
2022-08-08T04:34:32.418Z,64.22
2022-08-08T04:37:15.215Z,63.59
2022-08-08T04:40:04.290Z,63.51
2022-08-08T04:42:31.748Z,63.18
2022-08-08T04:45:00.504Z,61.65
2022-08-08T04:47:27.528Z,61.64
2022-08-08T04:50:00.768Z,62.42
2022-08-08T04:52:35.175Z,61.07
2022-08-08T04:55:04.460Z,60.80
2022-08-08T04:57:34.322Z,61.54
2022-08-08T05:00:02.281Z,59.76
2022-08-08T05:02:31.146Z,59.21
2022-08-08T05:04:59.904Z,58.80
2022-08-08T05:07:37.696Z,59.07
2022-08-08T05:10:08.803Z,61.37
2022-08-08T05:12:43.100Z,59.54
2022-08-08T05:15:31.434Z,59.52
2022-08-08T05:18:14.523Z,58.58
2022-08-08T05:20:50.039Z,58.49
2022-08-08T05:23:20.512Z,57.79
2022-08-08T05:25:49.641Z,57.33
2022-08-08T05:28:48.431Z,56.97
2022-08-08T05:31:19.487Z,56.02
2022-08-08T05:33:52.143Z,55.16
2022-08-08T05:36:25.552Z,55.57
2022-08-08T05:38:57.696Z,56.49
2022-08-08T05:41:25.915Z,56.28
2022-08-08T05:44:04.858Z,55.31
2022-08-08T05:46:33.289Z,54.43
2022-08-08T05:49:00.944Z,53.54
2022-08-08T05:51:28.263Z,54.44
2022-08-08T05:54:28.036Z,53.38
2022-08-08T05:57:04.669Z,53.95
2022-08-08T05:59:59.260Z,53.06
2022-08-08T06:02:44.134Z,53.20
2022-08-08T06:05:33.016Z,52.88
2022-08-08T06:08:09.573Z,53.48
2022-08-08T06:10:49.685Z,53.87
2022-08-08T06:14:03.753Z,54.06
2022-08-08T06:16:39.499Z,55.32
2022-08-08T06:19:16.336Z,55.03
2022-08-08T06:21:57.238Z,56.00
2022-08-08T06:24:30.424Z,57.05
2022-08-08T06:27:06.194Z,56.98
2022-08-08T06:29:59.777Z,56.70
2022-08-08T06:32:31.814Z,57.87
2022-08-08T06:36:04.575Z,57.52
2022-08-08T06:37:57.585Z,57.13
2022-08-08T06:40:27.159Z,58.90
2022-08-08T06:42:56.146Z,58.28
2022-08-08T06:45:24.206Z,56.55
2022-08-08T06:48:01.285Z,54.86
2022-08-08T06:50:31.726Z,54.18
2022-08-08T06:53:14.014Z,53.85
2022-08-08T06:55:47.125Z,52.81
2022-08-08T06:58:30.427Z,52.94
2022-08-08T07:01:01.319Z,52.65
2022-08-08T07:04:40.027Z,54.23
2022-08-08T07:06:56.397Z,53.63
2022-08-08T07:09:45.334Z,54.29
2022-08-08T07:12:30.672Z,54.31
2022-08-08T07:15:23.128Z,52.63
2022-08-08T07:18:01.635Z,51.68
2022-08-08T07:20:50.766Z,52.25
2022-08-08T07:23:27.255Z,53.46
2022-08-08T07:25:59.736Z,53.23
2022-08-08T07:28:31.781Z,55.99
2022-08-08T07:30:59.575Z,57.53
2022-08-08T07:33:27.765Z,57.81
2022-08-08T07:36:08.469Z,60.08
2022-08-08T07:38:37.924Z,58.13
2022-08-08T07:41:07.493Z,59.03
2022-08-08T07:43:53.484Z,59.29
2022-08-08T07:46:29.195Z,58.50
2022-08-08T07:48:57.722Z,59.14
2022-08-08T07:51:45.009Z,58.28
2022-08-08T07:54:58.975Z,59.14
2022-08-08T07:57:48.573Z,56.34
2022-08-08T08:00:17.112Z,56.09
2022-08-08T08:02:51.127Z,56.09
2022-08-08T08:05:26.323Z,55.56
2022-08-08T08:08:06.922Z,56.48
2022-08-08T08:10:36.255Z,54.71
2022-08-08T08:13:25.604Z,53.51
2022-08-08T08:16:12.063Z,54.64
2022-08-08T08:19:19.782Z,53.47
2022-08-08T08:21:56.846Z,52.78
2022-08-08T08:24:30.570Z,52.76
2022-08-08T08:26:59.967Z,51.38
2022-08-08T08:29:29.924Z,51.78
2022-08-08T08:32:03.434Z,50.54
2022-08-08T08:34:33.631Z,49.08
2022-08-08T08:37:08.041Z,49.12
2022-08-08T08:40:01.838Z,49.79
2022-08-08T08:42:35.793Z,50.32
2022-08-08T08:45:21.161Z,49.85
2022-08-08T08:47:55.061Z,50.66
2022-08-08T08:50:33.975Z,50.22
2022-08-08T08:53:54.309Z,51.44
2022-08-08T08:56:02.023Z,50.16
2022-08-08T08:58:38.242Z,50.71
2022-08-08T09:01:09.924Z,50.29
2022-08-08T09:03:47.658Z,50.44
2022-08-08T09:06:34.279Z,49.75
2022-08-08T09:09:04.057Z,49.50
2022-08-08T09:11:47.078Z,50.47
2022-08-08T09:14:25.832Z,49.10
2022-08-08T09:16:54.434Z,48.37
2022-08-08T09:21:56.001Z,50.27
2022-08-08T09:22:11.675Z,50.79
2022-08-08T09:24:40.237Z,49.99
2022-08-08T09:27:19.981Z,51.51
2022-08-08T09:30:10.932Z,50.56
2022-08-08T09:32:50.355Z,51.34
2022-08-08T09:35:37.448Z,51.54
2022-08-08T09:38:05.685Z,51.04
2022-08-08T09:40:43.965Z,50.39
2022-08-08T09:44:04.479Z,50.43
2022-08-08T09:46:25.412Z,50.51
2022-08-08T09:49:18.211Z,51.15
2022-08-08T09:52:09.912Z,51.24
2022-08-08T09:54:44.851Z,51.12
2022-08-08T09:57:19.149Z,49.57
2022-08-08T10:00:34.248Z,49.85
2022-08-08T10:02:57.574Z,48.81
2022-08-08T10:05:26.414Z,48.47
2022-08-08T10:08:00.068Z,47.98
2022-08-08T10:10:32.737Z,47.24
2022-08-08T10:13:29.878Z,46.72
2022-08-08T10:16:03.643Z,47.34
2022-08-08T10:18:34.667Z,46.99
2022-08-08T10:21:25.145Z,47.64
2022-08-08T10:24:03.160Z,47.20
2022-08-08T10:26:57.659Z,46.66
2022-08-08T10:29:58.612Z,46.28
2022-08-08T10:32:38.233Z,46.20
2022-08-08T10:36:06.858Z,48.82
2022-08-08T10:38:08.148Z,49.08
2022-08-08T10:40:38.371Z,49.31
2022-08-08T10:43:06.975Z,49.88
2022-08-08T10:45:56.524Z,48.98
2022-08-08T10:48:57.227Z,48.67
2022-08-08T10:51:47.486Z,46.33
2022-08-08T10:54:24.872Z,47.04
2022-08-08T10:57:05.511Z,47.50
2022-08-08T10:59:39.751Z,46.03
2022-08-08T11:02:09.291Z,45.69
2022-08-08T11:04:53.173Z,47.05
2022-08-08T11:08:30.152Z,46.24
2022-08-08T11:10:19.743Z,47.04
2022-08-08T11:13:27.131Z,45.46
2022-08-08T11:15:54.790Z,46.35
2022-08-08T11:18:31.532Z,45.72
2022-08-08T11:21:09.043Z,45.17
2022-08-08T11:23:42.105Z,45.11
2022-08-08T11:26:19.132Z,46.12
2022-08-08T11:28:47.775Z,46.32
2022-08-08T11:31:18.411Z,45.60
2022-08-08T11:34:03.601Z,44.97
2022-08-08T11:36:40.075Z,44.37
2022-08-08T11:39:12.993Z,45.03
2022-08-08T11:41:42.235Z,44.94
2022-08-08T11:44:11.974Z,46.04
2022-08-08T11:46:40.092Z,47.06
2022-08-08T11:49:14.240Z,47.61
2022-08-08T11:51:49.624Z,47.35
2022-08-08T11:54:38.329Z,46.11
2022-08-08T11:57:34.962Z,46.27
2022-08-08T12:00:07.328Z,48.05
2022-08-08T12:02:57.488Z,48.17
2022-08-08T12:05:35.983Z,49.00
2022-08-08T12:08:04.320Z,49.24
2022-08-08T12:10:32.298Z,48.57
2022-08-08T12:13:14.783Z,46.66
2022-08-08T12:15:51.732Z,45.01
2022-08-08T12:18:26.322Z,44.49
2022-08-08T12:20:58.813Z,43.76
2022-08-08T12:23:43.931Z,44.27
2022-08-08T12:26:27.480Z,43.36
2022-08-08T12:29:02.873Z,41.91
2022-08-08T12:31:39.451Z,41.81
2022-08-08T12:34:43.013Z,41.94
2022-08-08T12:37:41.822Z,44.36
2022-08-08T12:40:22.713Z,42.96
2022-08-08T12:42:52.313Z,43.19
2022-08-08T12:45:58.543Z,44.46
2022-08-08T12:48:37.002Z,43.07
2022-08-08T12:51:05.442Z,42.13
2022-08-08T12:53:41.690Z,42.69
2022-08-08T12:56:19.516Z,40.58
2022-08-08T12:58:54.433Z,40.38
2022-08-08T13:01:36.920Z,41.46
2022-08-08T13:04:18.683Z,42.22
2022-08-08T13:07:05.930Z,41.63
2022-08-08T13:09:57.769Z,41.02
2022-08-08T13:12:32.772Z,40.32
2022-08-08T13:15:12.369Z,39.92
2022-08-08T13:18:08.130Z,39.99
2022-08-08T13:20:27.898Z,40.52
2022-08-08T13:23:30.165Z,41.78
2022-08-08T13:25:43.874Z,42.37
2022-08-08T13:28:17.725Z,44.17
2022-08-08T13:30:45.476Z,42.58
2022-08-08T13:33:18.367Z,42.47
2022-08-08T13:35:50.595Z,41.85
2022-08-08T13:38:18.545Z,41.80
2022-08-08T13:40:46.167Z,42.29
2022-08-08T13:43:16.046Z,42.28
2022-08-08T13:45:47.217Z,43.66
2022-08-08T13:48:16.826Z,43.91
2022-08-08T13:50:52.517Z,44.06
2022-08-08T13:53:36.232Z,42.60
2022-08-08T13:56:11.290Z,42.08
2022-08-08T13:58:58.735Z,42.83
2022-08-08T14:01:32.832Z,42.60
2022-08-08T14:04:23.014Z,42.55
2022-08-08T14:06:58.943Z,42.51
2022-08-08T14:10:05.828Z,43.30
2022-08-08T14:12:30.604Z,43.35
2022-08-08T14:14:59.716Z,43.26
2022-08-08T14:17:57.795Z,42.02
2022-08-08T14:20:14.701Z,43.45
2022-08-08T14:22:43.150Z,43.67
2022-08-08T14:25:15.482Z,42.68
2022-08-08T14:27:59.730Z,43.06
2022-08-08T14:30:34.725Z,43.15
2022-08-08T14:33:02.022Z,41.14
2022-08-08T14:35:36.162Z,41.83
2022-08-08T14:38:34.402Z,42.15
2022-08-08T14:40:58.858Z,43.17
2022-08-08T14:44:02.836Z,44.05
2022-08-08T14:46:32.594Z,44.33
2022-08-08T14:49:09.510Z,42.54
2022-08-08T14:51:53.050Z,42.86
2022-08-08T14:54:28.739Z,41.67
2022-08-08T14:56:58.192Z,42.70
2022-08-08T14:59:43.593Z,42.99
2022-08-08T15:02:15.673Z,44.16
2022-08-08T15:04:43.283Z,43.70
2022-08-08T15:07:22.910Z,43.73
2022-08-08T15:10:00.196Z,44.50
2022-08-08T15:12:34.720Z,45.41
2022-08-08T15:15:01.653Z,45.78
2022-08-08T15:17:33.830Z,45.16
2022-08-08T15:20:04.614Z,44.53
2022-08-08T15:22:31.837Z,44.53
2022-08-08T15:24:58.668Z,44.77
2022-08-08T15:28:04.078Z,45.32
2022-08-08T15:30:14.685Z,44.54
2022-08-08T15:32:43.231Z,44.05
2022-08-08T15:35:10.945Z,45.91
2022-08-08T15:37:38.102Z,46.24
2022-08-08T15:40:11.336Z,46.22
2022-08-08T15:42:47.492Z,46.71
2022-08-08T15:45:16.385Z,47.76
2022-08-08T15:48:11.122Z,47.84
2022-08-08T15:50:51.337Z,48.63
2022-08-08T15:53:18.977Z,47.43
2022-08-08T15:55:47.298Z,48.60
2022-08-08T15:58:17.013Z,49.12
2022-08-08T16:00:50.343Z,48.96
2022-08-08T16:03:17.647Z,48.84
2022-08-08T16:05:53.264Z,48.06
2022-08-08T16:08:29.041Z,47.76
2022-08-08T16:13:27.361Z,46.99
2022-08-08T16:13:45.040Z,46.86
2022-08-08T16:16:17.276Z,46.93
2022-08-08T16:18:57.122Z,46.91
2022-08-08T16:21:27.656Z,46.65
2022-08-08T16:23:56.299Z,46.97
2022-08-08T16:26:34.719Z,48.04
2022-08-08T16:29:08.028Z,47.97
2022-08-08T16:31:37.674Z,48.32
2022-08-08T16:34:04.696Z,47.21
2022-08-08T16:36:33.319Z,48.35
2022-08-08T16:39:09.962Z,48.61
2022-08-08T16:41:51.030Z,48.16
2022-08-08T16:44:28.048Z,49.42
2022-08-08T16:47:21.914Z,48.50
2022-08-08T16:50:13.216Z,49.67
2022-08-08T16:55:07.221Z,49.11
2022-08-08T16:55:55.793Z,50.70
2022-08-08T16:58:18.773Z,50.73
2022-08-08T17:00:48.941Z,50.09
2022-08-08T17:03:24.700Z,50.44
2022-08-08T17:06:02.518Z,50.52
2022-08-08T17:08:30.082Z,49.75
2022-08-08T17:10:58.945Z,50.35
2022-08-08T17:13:41.453Z,50.53
2022-08-08T17:16:17.710Z,50.14
2022-08-08T17:18:49.220Z,49.67
2022-08-08T17:21:18.651Z,49.57
2022-08-08T17:24:00.461Z,49.95
2022-08-08T17:26:29.804Z,50.58
2022-08-08T17:28:58.565Z,49.90
2022-08-08T17:31:44.334Z,49.34
2022-08-08T17:34:54.212Z,50.38
2022-08-08T17:37:09.063Z,51.20
2022-08-08T17:40:03.398Z,49.84
2022-08-08T17:42:25.445Z,50.27
2022-08-08T17:44:52.836Z,50.13
2022-08-08T17:47:23.565Z,50.66
2022-08-08T17:49:53.063Z,51.37
2022-08-08T17:52:28.544Z,50.05
2022-08-08T17:54:56.937Z,50.38
2022-08-08T17:57:28.828Z,49.89
2022-08-08T18:00:02.316Z,50.36
2022-08-08T18:02:29.996Z,50.44
2022-08-08T18:05:04.504Z,49.25
2022-08-08T18:08:03.329Z,50.33
2022-08-08T18:10:31.404Z,50.48
2022-08-08T18:13:00.526Z,50.30
2022-08-08T18:15:31.294Z,50.33
2022-08-08T18:18:10.074Z,49.86
2022-08-08T18:20:55.338Z,51.44
2022-08-08T18:23:26.742Z,51.56
2022-08-08T18:25:53.705Z,51.36
2022-08-08T18:28:21.704Z,51.97
2022-08-08T18:30:52.593Z,51.54
2022-08-08T18:33:36.684Z,53.70
2022-08-08T18:36:18.811Z,53.56
2022-08-08T18:38:50.695Z,53.75
2022-08-08T18:41:19.206Z,52.52
2022-08-08T18:43:55.094Z,53.20
2022-08-08T18:46:56.452Z,53.41
2022-08-08T18:49:09.256Z,52.88
2022-08-08T18:51:54.082Z,52.06
2022-08-08T18:54:27.391Z,51.49
2022-08-08T18:56:57.391Z,52.62
2022-08-08T18:59:24.640Z,52.31
2022-08-08T19:02:25.185Z,51.81
2022-08-08T19:04:51.269Z,51.46
2022-08-08T19:07:23.112Z,52.15
2022-08-08T19:10:14.785Z,51.75
2022-08-08T19:12:39.599Z,53.53
2022-08-08T19:15:11.939Z,54.10
2022-08-08T19:17:48.238Z,53.94
2022-08-08T19:20:29.969Z,54.25
2022-08-08T19:22:59.115Z,54.14
2022-08-08T19:26:02.422Z,53.97
2022-08-08T19:28:19.553Z,55.06
2022-08-08T19:30:51.460Z,54.70
2022-08-08T19:33:39.655Z,56.86
2022-08-08T19:36:27.458Z,56.26
2022-08-08T19:38:54.642Z,55.89
2022-08-08T19:41:21.632Z,55.97
2022-08-08T19:44:03.404Z,57.41
2022-08-08T19:46:33.622Z,57.81
2022-08-08T19:49:03.122Z,56.11
2022-08-08T19:51:34.114Z,55.47
2022-08-08T19:54:06.234Z,55.40
2022-08-08T19:56:39.902Z,56.41
2022-08-08T20:02:02.420Z,55.89
2022-08-08T20:04:27.944Z,57.51
2022-08-08T20:06:56.825Z,59.94
2022-08-08T20:09:25.015Z,58.49
2022-08-08T20:11:52.077Z,60.39
2022-08-08T20:14:34.339Z,58.98
2022-08-08T20:17:01.923Z,59.72
2022-08-08T20:19:33.649Z,60.60
2022-08-08T20:22:13.384Z,59.60
2022-08-08T20:24:52.504Z,58.85
2022-08-08T20:27:43.916Z,58.49
2022-08-08T20:30:10.854Z,58.01
2022-08-08T20:32:57.684Z,58.41
2022-08-08T20:35:56.606Z,57.81
2022-08-08T20:38:14.535Z,57.87
2022-08-08T20:40:41.916Z,56.41
2022-08-08T20:43:22.776Z,56.66
2022-08-08T20:45:57.777Z,56.22
2022-08-08T20:48:30.247Z,56.12
2022-08-08T20:50:57.090Z,56.06
2022-08-08T20:53:57.652Z,56.39
2022-08-08T20:56:11.653Z,55.88
2022-08-08T20:58:40.828Z,55.00
2022-08-08T21:01:19.881Z,55.02
2022-08-08T21:03:59.870Z,55.28
2022-08-08T21:06:52.161Z,55.19
2022-08-08T21:09:15.873Z,53.84
2022-08-08T21:11:50.360Z,53.96
2022-08-08T21:14:33.369Z,54.06
2022-08-08T21:17:06.754Z,54.13
2022-08-08T21:19:45.552Z,53.60
2022-08-08T21:22:14.490Z,54.56
2022-08-08T21:24:53.831Z,54.67
2022-08-08T21:28:06.275Z,53.63
2022-08-08T21:30:18.898Z,53.53
2022-08-08T21:32:51.136Z,54.98
2022-08-08T21:36:16.717Z,54.43
2022-08-08T21:38:09.424Z,55.00
2022-08-08T21:40:54.653Z,55.24
2022-08-08T21:43:23.767Z,54.64
2022-08-08T21:48:07.512Z,55.44
2022-08-08T21:48:44.254Z,54.71
2022-08-08T21:51:13.352Z,54.49
2022-08-08T21:54:30.714Z,54.18
2022-08-08T21:56:36.079Z,54.18
2022-08-08T21:59:09.740Z,54.40
2022-08-08T22:01:39.264Z,54.11
2022-08-08T22:04:12.409Z,54.43
2022-08-08T22:06:40.480Z,54.12
2022-08-08T22:09:09.055Z,53.54
2022-08-08T22:11:51.161Z,52.94
2022-08-08T22:14:26.588Z,51.68
2022-08-08T22:16:54.605Z,53.26
2022-08-08T22:19:23.630Z,52.56
2022-08-08T22:21:51.196Z,52.14
2022-08-08T22:24:17.943Z,52.48
2022-08-08T22:27:01.811Z,52.57
2022-08-08T22:29:59.719Z,53.71
2022-08-08T22:32:18.938Z,53.44
2022-08-08T22:34:50.826Z,52.84
2022-08-08T22:37:48.838Z,54.04
2022-08-08T22:40:11.813Z,53.92
2022-08-08T22:42:45.770Z,54.00
2022-08-08T22:45:15.235Z,53.31
2022-08-08T22:47:49.008Z,53.54
2022-08-08T22:50:26.151Z,53.60
2022-08-08T22:54:32.370Z,53.62
2022-08-08T22:55:59.720Z,52.71
2022-08-08T22:58:34.235Z,52.60
2022-08-08T23:01:30.213Z,53.30
2022-08-08T23:03:55.823Z,53.05
2022-08-08T23:06:25.062Z,52.92
2022-08-08T23:08:55.286Z,53.84
2022-08-08T23:12:17.760Z,54.69
2022-08-08T23:14:15.104Z,53.19
2022-08-08T23:16:44.158Z,53.93
2022-08-08T23:19:15.178Z,54.24
2022-08-08T23:21:42.451Z,53.20
2022-08-08T23:24:09.495Z,53.07
2022-08-08T23:26:36.216Z,54.05
2022-08-08T23:29:10.792Z,54.20
2022-08-08T23:31:38.753Z,54.02
2022-08-08T23:34:17.187Z,54.14
2022-08-08T23:36:46.351Z,54.50
2022-08-08T23:39:13.291Z,53.16
2022-08-08T23:41:41.542Z,53.73
2022-08-08T23:44:12.777Z,53.36
2022-08-08T23:49:07.545Z,53.96
2022-08-08T23:49:26.828Z,54.21
2022-08-08T23:52:05.355Z,55.86
2022-08-08T23:54:42.970Z,55.16
2022-08-08T23:57:26.479Z,54.55
